Time;durP1;ratioP1;P1;durP2;ratioP2;P2;SDS_P1;SDS_P2;PMS_P1;PMS_P2;Temp;Humidity;BMP_temperature;BMP_pressure;BME280_temperature;BME280_humidity;BME280_pressure;Samples;Min_cycle;Max_cycle;Signal;HPM_P1;HPM_P2
2023/05/18 00:01:05;;;;;;;0.77;0.77;;;;;;;;;;4987545;28;20209;-56
2023/05/18 00:03:32;;;;;;;4.90;0.70;;;;;;;;;;4988297;28;20237;-56
2023/05/18 00:06:03;;;;;;;2.67;1.07;;;;;;;;;;4987685;28;20881;-57
2023/05/18 00:08:30;;;;;;;0.90;0.90;;;;;;;;;;4987735;28;20214;-56
2023/05/18 00:10:57;;;;;;;4.60;0.90;;;;;;;;;;4987698;28;20259;-56
2023/05/18 00:13:24;;;;;;;3.17;0.93;;;;;;;;;;4993076;28;20209;-56
2023/05/18 00:15:51;;;;;;;4.63;1.00;;;;;;;;;;5006023;28;20212;-57
2023/05/18 00:18:22;;;;;;;1.53;1.03;;;;;;;;;;5006864;28;20204;-56
2023/05/18 00:20:49;;;;;;;4.47;0.90;;;;;;;;;;5006148;28;20245;-56
2023/05/18 00:23:16;;;;;;;0.93;0.60;;;;;;;;;;5006364;28;20241;-56
2023/05/18 00:25:43;;;;;;;6.03;0.97;;;;;;;;;;4992876;28;20201;-56
2023/05/18 00:28:11;;;;;;;2.03;1.00;;;;;;;;;;4991723;28;20200;-56
2023/05/18 00:30:39;;;;;;;1.30;0.70;;;;;;;;;;5007030;28;20288;-56
2023/05/18 00:33:06;;;;;;;3.17;0.87;;;;;;;;;;5005755;28;20293;-56
2023/05/18 00:35:34;;;;;;;1.00;0.60;;;;;;;;;;5006307;28;20259;-57
2023/05/18 00:38:01;;;;;;;4.13;1.10;;;;;;;;;;5006787;28;20225;-56
2023/05/18 00:40:29;;;;;;;3.53;0.77;;;;;;;;;;5006757;28;20734;-57
2023/05/18 00:42:56;;;;;;;0.43;0.43;;;;;;;;;;5005001;28;20240;-56
2023/05/18 00:45:23;;;;;;;1.13;1.03;;;;;;;;;;4987679;28;20672;-56
2023/05/18 00:47:50;;;;;;;3.67;0.70;;;;;;;;;;4988772;28;20256;-56
2023/05/18 00:50:17;;;;;;;5.40;1.13;;;;;;;;;;4993556;28;20197;-56
2023/05/18 00:52:46;;;;;;;8.47;1.40;;;;;;;;;;5006299;28;20245;-56
2023/05/18 00:55:13;;;;;;;1.43;0.93;;;;;;;;;;5000383;28;20201;-56
2023/05/18 00:57:44;;;;;;;1.60;1.00;;;;;;;;;;4986680;28;20323;-56
2023/05/18 01:00:12;;;;;;;3.13;0.90;;;;;;;;;;4989820;28;20745;-56
2023/05/18 01:02:41;;;;;;;3.40;1.00;;;;;;;;;;5004863;28;20220;-57
2023/05/18 01:05:09;;;;;;;4.53;0.90;;;;;;;;;;4990364;28;20212;-57
2023/05/18 01:07:37;;;;;;;1.60;0.60;;;;;;;;;;5003719;28;20733;-56
2023/05/18 01:10:07;;;;;;;2.70;0.90;;;;;;;;;;5006115;28;20205;-56
2023/05/18 01:12:38;;;;;;;4.07;1.33;;;;;;;;;;5002504;28;20675;-57
2023/05/18 01:15:08;;;;;;;3.70;0.87;;;;;;;;;;5000482;28;20297;-56
2023/05/18 01:17:39;;;;;;;1.57;0.80;;;;;;;;;;5006840;28;20228;-57
2023/05/18 01:20:16;;;;;;;0.77;0.47;;;;;;;;;;4989964;28;20237;-56
2023/05/18 01:23:02;;;;;;;1.80;0.60;;;;;;;;;;4987318;28;20245;-56
2023/05/18 01:25:35;;;;;;;3.03;1.00;;;;;;;;;;4987279;28;20241;-57
2023/05/18 01:28:06;;;;;;;1.53;1.03;;;;;;;;;;4987326;28;20209;-56
2023/05/18 01:30:34;;;;;;;1.47;0.60;;;;;;;;;;4990594;28;20449;-56
2023/05/18 01:33:01;;;;;;;2.40;1.07;;;;;;;;;;4987527;28;20280;-56
2023/05/18 01:35:28;;;;;;;3.10;0.60;;;;;;;;;;4989464;28;20210;-56
2023/05/18 01:37:55;;;;;;;2.27;0.90;;;;;;;;;;4987297;28;20226;-57
2023/05/18 01:40:22;;;;;;;2.33;0.60;;;;;;;;;;4991855;28;20201;-57
2023/05/18 01:42:52;;;;;;;1.00;0.50;;;;;;;;;;4988702;28;20214;-56
2023/05/18 01:45:22;;;;;;;1.23;0.53;;;;;;;;;;4987868;28;20637;-57
2023/05/18 01:47:49;;;;;;;6.50;0.80;;;;;;;;;;4991138;28;20316;-56
2023/05/18 01:50:19;;;;;;;8.40;0.50;;;;;;;;;;5004219;28;20255;-57
2023/05/18 01:52:48;;;;;;;0.90;0.73;;;;;;;;;;5010221;28;20235;-56
2023/05/18 01:55:17;;;;;;;0.70;0.70;;;;;;;;;;5005460;28;20268;-56
2023/05/18 01:57:45;;;;;;;0.57;0.40;;;;;;;;;;4990713;28;20234;-56
2023/05/18 02:00:15;;;;;;;0.60;0.60;;;;;;;;;;4990965;28;20233;-56
2023/05/18 02:02:43;;;;;;;5.43;0.53;;;;;;;;;;4990526;28;20292;-56
2023/05/18 02:05:11;;;;;;;0.80;0.80;;;;;;;;;;5002860;28;20205;-56
2023/05/18 02:07:38;;;;;;;3.30;0.83;;;;;;;;;;5009784;28;20205;-57
2023/05/18 02:10:05;;;;;;;0.23;0.23;;;;;;;;;;4996782;28;20213;-56
2023/05/18 02:12:32;;;;;;;0.77;0.60;;;;;;;;;;4991447;28;20233;-56
2023/05/18 02:15:04;;;;;;;0.30;0.17;;;;;;;;;;4991175;28;20209;-56
2023/05/18 02:17:31;;;;;;;1.33;0.80;;;;;;;;;;4989972;28;20300;-55
2023/05/18 02:19:59;;;;;;;2.67;0.77;;;;;;;;;;5001267;28;20275;-56
2023/05/18 02:22:26;;;;;;;0.27;0.27;;;;;;;;;;5009394;28;20706;-56
2023/05/18 02:24:53;;;;;;;0.40;0.40;;;;;;;;;;5007555;28;20291;-56
2023/05/18 02:27:20;;;;;;;0.67;0.57;;;;;;;;;;5009519;28;20591;-56
2023/05/18 02:29:47;;;;;;;0.73;0.63;;;;;;;;;;5001564;28;20213;-56
2023/05/18 02:32:15;;;;;;;3.40;0.70;;;;;;;;;;5009593;28;20614;-56
2023/05/18 02:34:42;;;;;;;1.07;0.40;;;;;;;;;;4994048;28;20213;-56
2023/05/18 02:37:12;;;;;;;5.03;0.77;;;;;;;;;;5009117;28;20237;-56
2023/05/18 02:39:39;;;;;;;0.40;0.40;;;;;;;;;;4993582;28;20210;-57
2023/05/18 02:42:06;;;;;;;1.60;0.43;;;;;;;;;;4989807;28;20770;-56
2023/05/18 02:44:33;;;;;;;4.73;0.70;;;;;;;;;;4998075;28;20271;-56
2023/05/18 02:47:00;;;;;;;0.30;0.30;;;;;;;;;;5007222;28;20262;-56
2023/05/18 02:49:27;;;;;;;1.47;1.10;;;;;;;;;;5007144;28;20263;-57
2023/05/18 02:51:54;;;;;;;0.80;0.80;;;;;;;;;;5008467;28;20217;-57
2023/05/18 02:54:23;;;;;;;4.70;0.93;;;;;;;;;;5007476;28;20213;-56
2023/05/18 02:56:50;;;;;;;0.70;0.53;;;;;;;;;;4991325;28;20205;-56
2023/05/18 02:59:17;;;;;;;0.13;0.13;;;;;;;;;;4990185;28;20198;-56
2023/05/18 03:01:44;;;;;;;7.27;0.70;;;;;;;;;;4989370;28;20946;-56
2023/05/18 03:04:12;;;;;;;0.97;0.87;;;;;;;;;;4995367;28;20210;-56
2023/05/18 03:06:40;;;;;;;0.43;0.40;;;;;;;;;;4989190;28;20220;-56
2023/05/18 03:09:07;;;;;;;0.50;0.50;;;;;;;;;;5002029;28;20225;-56
2023/05/18 03:11:35;;;;;;;2.83;0.37;;;;;;;;;;5008721;28;20723;-56
2023/05/18 03:14:02;;;;;;;4.70;0.80;;;;;;;;;;4995471;28;20209;-56
2023/05/18 03:16:29;;;;;;;3.40;0.80;;;;;;;;;;4989020;28;20218;-56
2023/05/18 03:18:57;;;;;;;0.90;0.57;;;;;;;;;;5000278;28;20217;-56
2023/05/18 03:21:24;;;;;;;9.17;0.83;;;;;;;;;;5008251;28;20241;-56
2023/05/18 03:23:51;;;;;;;5.70;0.70;;;;;;;;;;5006088;28;20833;-56
2023/05/18 03:26:18;;;;;;;3.07;1.10;;;;;;;;;;5007062;28;20201;-56
2023/05/18 03:28:47;;;;;;;1.97;0.47;;;;;;;;;;5008166;28;20215;-56
2023/05/18 03:31:14;;;;;;;4.53;0.57;;;;;;;;;;5007077;28;20216;-57
2023/05/18 03:33:41;;;;;;;1.20;0.37;;;;;;;;;;5008375;28;20217;-56
2023/05/18 03:36:08;;;;;;;1.03;0.70;;;;;;;;;;5003063;28;20205;-56
2023/05/18 03:38:35;;;;;;;3.27;0.70;;;;;;;;;;5008034;28;20232;-56
2023/05/18 03:41:02;;;;;;;1.73;0.60;;;;;;;;;;4997070;28;20708;-56
2023/05/18 03:43:31;;;;;;;1.43;0.70;;;;;;;;;;4988735;28;20218;-56
2023/05/18 03:45:59;;;;;;;0.50;0.43;;;;;;;;;;4990016;28;20260;-56
2023/05/18 03:48:27;;;;;;;3.43;0.87;;;;;;;;;;4988601;28;20222;-56
2023/05/18 03:50:54;;;;;;;0.20;0.20;;;;;;;;;;4989094;28;20305;-56
2023/05/18 03:53:21;;;;;;;5.60;0.80;;;;;;;;;;4988347;28;20197;-56
2023/05/18 03:55:50;;;;;;;0.83;0.80;;;;;;;;;;4992931;28;20205;-56
2023/05/18 03:58:18;;;;;;;0.77;0.77;;;;;;;;;;5003380;28;20233;-56
2023/05/18 04:00:46;;;;;;;2.57;0.80;;;;;;;;;;4988301;28;20237;-56
2023/05/18 04:03:14;;;;;;;0.90;0.90;;;;;;;;;;5001971;28;20223;-57
2023/05/18 04:05:42;;;;;;;0.20;0.20;;;;;;;;;;5002722;28;20361;-56
2023/05/18 04:08:13;;;;;;;2.20;0.97;;;;;;;;;;4987636;28;20273;-56
2023/05/18 04:10:40;;;;;;;0.70;0.50;;;;;;;;;;4988679;28;20209;-56
2023/05/18 04:13:07;;;;;;;0.60;0.60;;;;;;;;;;4987530;28;20237;-56
2023/05/18 04:15:34;;;;;;;3.90;0.90;;;;;;;;;;4988312;28;20205;-56
2023/05/18 04:18:01;;;;;;;3.40;0.80;;;;;;;;;;4987639;28;20225;-56
2023/05/18 04:20:29;;;;;;;3.17;0.97;;;;;;;;;;4998671;28;20237;-56
2023/05/18 04:22:57;;;;;;;1.07;0.60;;;;;;;;;;4987213;28;20242;-56
2023/05/18 04:25:26;;;;;;;0.80;0.67;;;;;;;;;;4988136;28;20350;-57
2023/05/18 04:27:54;;;;;;;0.50;0.50;;;;;;;;;;4987085;28;20214;-56
2023/05/18 04:30:22;;;;;;;0.33;0.33;;;;;;;;;;4996907;28;20288;-56
2023/05/18 04:32:49;;;;;;;0.73;0.50;;;;;;;;;;5006823;28;20223;-55
2023/05/18 04:35:17;;;;;;;1.33;1.23;;;;;;;;;;4998092;28;20229;-56
2023/05/18 04:37:45;;;;;;;4.03;0.70;;;;;;;;;;5004885;28;20264;-56
2023/05/18 04:40:15;;;;;;;4.57;0.70;;;;;;;;;;5006755;28;20255;-56
2023/05/18 04:42:44;;;;;;;1.40;0.80;;;;;;;;;;5005996;28;20221;-56
2023/05/18 04:45:15;;;;;;;1.00;0.90;;;;;;;;;;5001311;28;20676;-56
2023/05/18 04:47:45;;;;;;;7.80;1.10;;;;;;;;;;4998822;28;20317;-56
2023/05/18 04:50:12;;;;;;;1.00;1.00;;;;;;;;;;5000578;28;20232;-58
2023/05/18 04:52:40;;;;;;;2.33;0.83;;;;;;;;;;5003911;28;20309;-56
2023/05/18 04:55:10;;;;;;;2.00;1.17;;;;;;;;;;5002572;28;20280;-56
2023/05/18 04:57:37;;;;;;;1.93;0.30;;;;;;;;;;4988629;28;20970;-56
2023/05/18 05:00:05;;;;;;;0.67;0.67;;;;;;;;;;4997405;28;20299;-56
2023/05/18 05:02:32;;;;;;;1.03;0.90;;;;;;;;;;5006620;28;20255;-56
2023/05/18 05:04:59;;;;;;;0.93;0.80;;;;;;;;;;5005861;28;20294;-56
2023/05/18 05:07:26;;;;;;;1.07;0.63;;;;;;;;;;5004639;28;20920;-56
2023/05/18 05:09:53;;;;;;;1.30;0.50;;;;;;;;;;5007137;28;20217;-57
2023/05/18 05:12:21;;;;;;;0.60;0.60;;;;;;;;;;4992605;28;20584;-57
2023/05/18 05:14:48;;;;;;;2.20;0.97;;;;;;;;;;4994218;28;20224;-56
2023/05/18 05:17:15;;;;;;;2.67;0.67;;;;;;;;;;5006793;28;20209;-56
2023/05/18 05:19:42;;;;;;;3.27;0.40;;;;;;;;;;5000808;28;20261;-56
2023/05/18 05:22:10;;;;;;;0.80;0.60;;;;;;;;;;4990033;28;20245;-56
2023/05/18 05:24:37;;;;;;;0.80;0.47;;;;;;;;;;4999490;28;20601;-60
2023/05/18 05:27:04;;;;;;;1.97;0.47;;;;;;;;;;5010390;28;20217;-56
2023/05/18 05:29:32;;;;;;;3.90;0.70;;;;;;;;;;5008051;28;20205;-56
2023/05/18 05:31:59;;;;;;;0.90;0.90;;;;;;;;;;4992894;28;20679;-56
2023/05/18 05:34:26;;;;;;;0.27;0.27;;;;;;;;;;5008976;28;20228;-56
2023/05/18 05:36:53;;;;;;;1.37;0.90;;;;;;;;;;5001942;28;20205;-56
2023/05/18 05:39:20;;;;;;;1.63;0.93;;;;;;;;;;5003789;28;20278;-56
2023/05/18 05:41:47;;;;;;;2.77;1.10;;;;;;;;;;4990645;28;20220;-56
2023/05/18 05:44:14;;;;;;;0.60;0.60;;;;;;;;;;5004276;28;20212;-56
2023/05/18 05:46:43;;;;;;;1.73;0.67;;;;;;;;;;5009192;28;20209;-56
2023/05/18 05:49:10;;;;;;;0.77;0.77;;;;;;;;;;5010472;28;20533;-56
2023/05/18 05:51:37;;;;;;;2.93;0.90;;;;;;;;;;5009780;28;20577;-56
2023/05/18 05:54:04;;;;;;;1.50;1.40;;;;;;;;;;5010132;28;20221;-56
2023/05/18 05:56:31;;;;;;;5.77;1.00;;;;;;;;;;5006867;28;20209;-56
2023/05/18 05:58:58;;;;;;;2.40;0.90;;;;;;;;;;5002491;28;20232;-57
2023/05/18 06:01:26;;;;;;;4.03;0.80;;;;;;;;;;4990425;28;20276;-56
2023/05/18 06:03:54;;;;;;;2.00;0.70;;;;;;;;;;4997672;28;20307;-57
2023/05/18 06:06:21;;;;;;;0.73;0.73;;;;;;;;;;5009591;28;20263;-57
2023/05/18 06:08:48;;;;;;;1.77;0.77;;;;;;;;;;5009087;28;20201;-57
2023/05/18 06:11:16;;;;;;;0.70;0.70;;;;;;;;;;5009278;28;20212;-57
2023/05/18 06:13:43;;;;;;;0.60;0.60;;;;;;;;;;5006780;28;20270;-58
2023/05/18 06:16:10;;;;;;;0.63;0.47;;;;;;;;;;5009369;28;20671;-57
2023/05/18 06:18:37;;;;;;;1.23;0.73;;;;;;;;;;5006184;28;20229;-57
2023/05/18 06:21:05;;;;;;;0.43;0.43;;;;;;;;;;5008645;28;20233;-57
2023/05/18 06:23:32;;;;;;;2.27;0.90;;;;;;;;;;5008184;28;20654;-57
2023/05/18 06:25:59;;;;;;;1.33;0.47;;;;;;;;;;5009118;28;20271;-57
2023/05/18 06:28:26;;;;;;;3.33;1.07;;;;;;;;;;5007971;28;20201;-57
2023/05/18 06:30:53;;;;;;;0.60;0.60;;;;;;;;;;5009134;28;20205;-57
2023/05/18 06:33:22;;;;;;;1.90;0.73;;;;;;;;;;5006577;28;20267;-57
2023/05/18 06:35:49;;;;;;;1.30;0.40;;;;;;;;;;4989324;28;20236;-57
2023/05/18 06:38:17;;;;;;;3.50;1.13;;;;;;;;;;5000930;28;20229;-57
2023/05/18 06:40:44;;;;;;;0.67;0.67;;;;;;;;;;5007130;28;20742;-57
2023/05/18 06:43:11;;;;;;;2.47;1.00;;;;;;;;;;5008794;28;20217;-58
2023/05/18 06:45:38;;;;;;;2.73;0.70;;;;;;;;;;5008805;28;20275;-57
2023/05/18 06:48:06;;;;;;;1.43;0.83;;;;;;;;;;5008514;28;20216;-57
2023/05/18 06:50:33;;;;;;;1.03;0.93;;;;;;;;;;5008841;28;20243;-57
2023/05/18 06:53:03;;;;;;;2.10;1.30;;;;;;;;;;5008479;28;20326;-58
2023/05/18 06:55:31;;;;;;;2.87;0.90;;;;;;;;;;5006330;28;20671;-57
2023/05/18 06:57:58;;;;;;;1.63;0.77;;;;;;;;;;5008569;28;20216;-57
2023/05/18 07:00:25;;;;;;;0.93;0.80;;;;;;;;;;5007509;28;20213;-58
2023/05/18 07:02:52;;;;;;;4.50;0.98;;;;;;;;;;5004214;28;20220;-58
2023/05/18 07:05:19;;;;;;;4.10;0.53;;;;;;;;;;4990586;28;20221;-57
2023/05/18 07:07:46;;;;;;;0.70;0.70;;;;;;;;;;4998100;28;20217;-57
2023/05/18 07:10:13;;;;;;;1.70;0.80;;;;;;;;;;4991457;28;20205;-57
2023/05/18 07:12:42;;;;;;;1.30;0.60;;;;;;;;;;4994242;28;20209;-57
2023/05/18 07:15:10;;;;;;;1.30;0.80;;;;;;;;;;4993379;28;20554;-57
2023/05/18 07:17:37;;;;;;;2.58;0.70;;;;;;;;;;4998950;28;20816;-58
2023/05/18 07:20:05;;;;;;;7.93;0.80;;;;;;;;;;5007694;28;20237;-57
2023/05/18 07:22:32;;;;;;;0.67;0.67;;;;;;;;;;5007083;28;20672;-57
2023/05/18 07:24:59;;;;;;;1.33;0.60;;;;;;;;;;5007037;28;20288;-55
2023/05/18 07:27:26;;;;;;;3.25;0.80;;;;;;;;;;4991234;28;20821;-58
2023/05/18 07:29:55;;;;;;;1.95;1.05;;;;;;;;;;5006866;28;20197;-57
2023/05/18 07:32:22;;;;;;;2.72;0.82;;;;;;;;;;5006842;28;20211;-58
2023/05/18 07:34:49;;;;;;;1.05;0.35;;;;;;;;;;5003121;28;20216;-57
2023/05/18 07:37:16;;;;;;;0.80;0.80;;;;;;;;;;4992402;28;20237;-58
2023/05/18 07:39:43;;;;;;;0.65;0.55;;;;;;;;;;4996896;28;20300;-58
2023/05/18 07:42:11;;;;;;;2.80;0.63;;;;;;;;;;4989465;28;20202;-57
2023/05/18 07:44:38;;;;;;;0.95;0.75;;;;;;;;;;4989145;28;20294;-57
2023/05/18 07:47:06;;;;;;;2.10;1.10;;;;;;;;;;5005346;28;20216;-58
2023/05/18 07:49:33;;;;;;;1.83;0.57;;;;;;;;;;5006543;28;20651;-57
2023/05/18 07:52:01;;;;;;;3.20;0.70;;;;;;;;;;5008081;28;20271;-57
2023/05/18 07:54:28;;;;;;;1.50;0.70;;;;;;;;;;4993354;28;20337;-58
2023/05/18 07:56:55;;;;;;;1.40;0.63;;;;;;;;;;4999160;28;20359;-57
2023/05/18 07:59:22;;;;;;;1.60;0.88;;;;;;;;;;5007146;28;20221;-58
2023/05/18 08:01:49;;;;;;;4.38;0.88;;;;;;;;;;4995681;28;20239;-58
2023/05/18 08:04:17;;;;;;;0.73;0.70;;;;;;;;;;5006967;28;20235;-58
2023/05/18 08:06:44;;;;;;;1.30;0.82;;;;;;;;;;5006811;28;20213;-57
2023/05/18 08:09:11;;;;;;;0.80;0.70;;;;;;;;;;5002513;28;20231;-57
2023/05/18 08:11:38;;;;;;;0.70;0.50;;;;;;;;;;4987953;28;20210;-57
2023/05/18 08:14:05;;;;;;;0.85;0.80;;;;;;;;;;4996154;28;20362;-59
2023/05/18 08:16:35;;;;;;;0.95;0.70;;;;;;;;;;5006996;28;20668;-55
2023/05/18 08:19:02;;;;;;;1.17;0.60;;;;;;;;;;5003295;28;20573;-57
2023/05/18 08:21:31;;;;;;;0.80;0.40;;;;;;;;;;5004546;28;20313;-57
2023/05/18 08:23:59;;;;;;;1.17;0.60;;;;;;;;;;4998265;28;20273;-57
2023/05/18 08:26:26;;;;;;;2.45;0.73;;;;;;;;;;4968112;28;20221;-57
2023/05/18 08:28:53;;;;;;;2.30;0.68;;;;;;;;;;4968956;28;20298;-57
2023/05/18 08:31:20;;;;;;;2.40;1.10;;;;;;;;;;4968222;28;20681;-59
2023/05/18 08:33:48;;;;;;;0.63;0.60;;;;;;;;;;4987886;28;20300;-57
2023/05/18 08:36:16;;;;;;;0.77;0.77;;;;;;;;;;4986976;28;20272;-57
2023/05/18 08:38:44;;;;;;;1.48;0.98;;;;;;;;;;4986250;28;20292;-57
2023/05/18 08:41:15;;;;;;;3.22;0.60;;;;;;;;;;4983340;28;20229;-57
2023/05/18 08:43:43;;;;;;;1.70;0.60;;;;;;;;;;4977627;28;20596;-58
2023/05/18 08:46:15;;;;;;;0.80;0.80;;;;;;;;;;4973942;28;20198;-60
2023/05/18 08:48:44;;;;;;;2.03;0.70;;;;;;;;;;4986197;28;20213;-59
2023/05/18 08:51:14;;;;;;;2.72;0.85;;;;;;;;;;4970867;28;20229;-59
2023/05/18 08:53:41;;;;;;;1.23;0.80;;;;;;;;;;4985377;28;20820;-59
2023/05/18 08:56:11;;;;;;;2.42;0.93;;;;;;;;;;4984581;28;20206;-59
2023/05/18 08:58:43;;;;;;;1.92;0.70;;;;;;;;;;4971625;28;20912;-57
2023/05/18 09:01:10;;;;;;;0.63;0.63;;;;;;;;;;4970963;28;20592;-57
2023/05/18 09:03:38;;;;;;;7.28;0.75;;;;;;;;;;4976973;28;20228;-54
2023/05/18 09:06:05;;;;;;;3.90;0.60;;;;;;;;;;4990038;28;20260;-57
2023/05/18 09:08:32;;;;;;;1.55;0.55;;;;;;;;;;4986518;28;20209;-55
2023/05/18 09:11:02;;;;;;;1.65;0.82;;;;;;;;;;4988670;28;20205;-55
2023/05/18 09:16:27;;;;;;;1.13;0.82;;;;;;;;;;4954563;28;20214;-58
2023/05/18 09:18:54;;;;;;;0.95;0.85;;;;;;;;;;4971808;28;20277;-58
2023/05/18 09:21:21;;;;;;;1.75;0.85;;;;;;;;;;4988666;28;20218;-58
2023/05/18 09:23:48;;;;;;;1.08;0.40;;;;;;;;;;4989271;28;20233;-59
2023/05/18 09:26:15;;;;;;;3.05;0.90;;;;;;;;;;4991354;28;20205;-59
2023/05/18 09:28:44;;;;;;;1.10;0.70;;;;;;;;;;4991439;28;20217;-59
2023/05/18 09:31:16;;;;;;;1.27;0.60;;;;;;;;;;4992370;28;20255;-58
2023/05/18 09:33:45;;;;;;;4.13;1.17;;;;;;;;;;5005576;28;20205;-59
2023/05/18 09:36:14;;;;;;;2.58;0.77;;;;;;;;;;5009864;28;20455;-58
2023/05/18 09:38:44;;;;;;;2.92;0.80;;;;;;;;;;5010063;28;20205;-59
2023/05/18 09:41:11;;;;;;;0.65;0.65;;;;;;;;;;5010420;28;20244;-59
2023/05/18 09:43:38;;;;;;;0.80;0.80;;;;;;;;;;5010232;28;20212;-59
2023/05/18 09:46:07;;;;;;;1.83;0.73;;;;;;;;;;5010358;28;20257;-58
2023/05/18 09:48:35;;;;;;;1.42;1.08;;;;;;;;;;5007863;28;20300;-57
2023/05/18 09:51:05;;;;;;;3.08;1.02;;;;;;;;;;5009193;28;20201;-57
2023/05/18 09:53:32;;;;;;;2.55;0.80;;;;;;;;;;4999575;28;20280;-57
2023/05/18 09:56:02;;;;;;;0.90;0.70;;;;;;;;;;5008756;28;20205;-58
2023/05/18 09:58:32;;;;;;;1.17;1.08;;;;;;;;;;4995432;28;20210;-57
2023/05/18 10:01:00;;;;;;;0.82;0.70;;;;;;;;;;4996874;28;20663;-58
2023/05/18 10:03:32;;;;;;;2.28;0.85;;;;;;;;;;5002890;28;20218;-58
2023/05/18 10:06:01;;;;;;;0.90;0.68;;;;;;;;;;4998817;28;20205;-58
2023/05/18 10:08:30;;;;;;;0.77;0.68;;;;;;;;;;5010364;28;20209;-58
2023/05/18 10:10:57;;;;;;;2.33;0.82;;;;;;;;;;5010127;28;20267;-58
2023/05/18 10:13:26;;;;;;;3.30;0.77;;;;;;;;;;4995707;28;20213;-58
2023/05/18 10:15:54;;;;;;;4.75;0.93;;;;;;;;;;5005810;28;20204;-57
2023/05/18 10:18:22;;;;;;;0.95;0.90;;;;;;;;;;4992482;28;20209;-58
2023/05/18 10:20:50;;;;;;;1.00;0.75;;;;;;;;;;4991953;28;20264;-60
2023/05/18 10:23:18;;;;;;;0.60;0.60;;;;;;;;;;5009368;28;20240;-58
2023/05/18 10:25:47;;;;;;;1.77;1.10;;;;;;;;;;5000218;28;20308;-63
2023/05/18 10:28:18;;;;;;;0.70;0.57;;;;;;;;;;4990414;28;20213;-58
2023/05/18 10:30:46;;;;;;;1.92;0.80;;;;;;;;;;5002615;28;20295;-58
2023/05/18 10:33:13;;;;;;;0.75;0.75;;;;;;;;;;4994626;28;20232;-59
2023/05/18 10:35:41;;;;;;;0.98;0.60;;;;;;;;;;5004869;28;20201;-58
2023/05/18 10:38:08;;;;;;;0.93;0.90;;;;;;;;;;5002865;28;20201;-59
2023/05/18 10:40:36;;;;;;;0.80;0.80;;;;;;;;;;5007554;28;20455;-59
2023/05/18 10:43:06;;;;;;;2.35;0.82;;;;;;;;;;4993095;28;20543;-60
2023/05/18 10:45:34;;;;;;;0.50;0.50;;;;;;;;;;4994400;28;20337;-60
2023/05/18 10:48:02;;;;;;;0.70;0.70;;;;;;;;;;5004510;28;20212;-59
2023/05/18 10:50:31;;;;;;;1.73;0.60;;;;;;;;;;4995045;28;20209;-59
2023/05/18 10:52:59;;;;;;;1.10;0.60;;;;;;;;;;4990543;28;20224;-59
2023/05/18 10:55:28;;;;;;;2.35;0.90;;;;;;;;;;4995566;28;21099;-57
2023/05/18 10:57:57;;;;;;;0.73;0.73;;;;;;;;;;5008372;28;20231;-59
2023/05/18 11:00:25;;;;;;;2.65;0.70;;;;;;;;;;4996451;28;20232;-59
2023/05/18 11:02:53;;;;;;;3.80;1.10;;;;;;;;;;5008265;28;20210;-59
2023/05/18 11:05:24;;;;;;;0.70;0.63;;;;;;;;;;5002902;28;20210;-59
2023/05/18 11:07:51;;;;;;;1.15;0.65;;;;;;;;;;4993114;28;20206;-60
2023/05/18 11:10:18;;;;;;;1.98;1.23;;;;;;;;;;4991389;28;20215;-59
2023/05/18 11:12:45;;;;;;;0.93;0.63;;;;;;;;;;4997666;28;20205;-59
2023/05/18 11:15:12;;;;;;;4.47;0.90;;;;;;;;;;4998045;28;20213;-59
2023/05/18 11:17:41;;;;;;;0.80;0.80;;;;;;;;;;5000281;28;20640;-60
2023/05/18 11:20:11;;;;;;;3.95;1.00;;;;;;;;;;5007365;28;20240;-59
2023/05/18 11:22:43;;;;;;;1.98;0.80;;;;;;;;;;5007247;28;20233;-61
2023/05/18 11:25:10;;;;;;;1.95;0.90;;;;;;;;;;4990118;28;20201;-56
2023/05/18 11:27:37;;;;;;;1.05;0.70;;;;;;;;;;4989402;28;20212;-59
2023/05/18 11:30:04;;;;;;;0.70;0.70;;;;;;;;;;4993006;28;20732;-56
2023/05/18 11:32:32;;;;;;;3.30;0.75;;;;;;;;;;5008210;28;20292;-56
2023/05/18 11:35:01;;;;;;;2.30;0.63;;;;;;;;;;4994778;28;20798;-58
2023/05/18 11:37:46;;;;;;;3.15;1.00;;;;;;;;;;4989121;28;20676;-56
2023/05/18 11:40:15;;;;;;;0.82;0.80;;;;;;;;;;4992703;28;20236;-56
2023/05/18 11:42:42;;;;;;;0.77;0.77;;;;;;;;;;4996930;28;20259;-55
2023/05/18 11:45:10;;;;;;;2.22;0.73;;;;;;;;;;4993651;28;20217;-56
2023/05/18 11:47:39;;;;;;;0.80;0.75;;;;;;;;;;4989748;28;20264;-56
2023/05/18 11:50:09;;;;;;;3.55;0.80;;;;;;;;;;5006549;28;20703;-57
2023/05/18 11:52:45;;;;;;;0.80;0.80;;;;;;;;;;4995890;28;20209;-58
2023/05/18 11:55:15;;;;;;;1.65;0.77;;;;;;;;;;4993136;28;20680;-58
2023/05/18 11:57:43;;;;;;;0.90;0.90;;;;;;;;;;5010860;28;20675;-58
2023/05/18 12:00:12;;;;;;;1.05;0.85;;;;;;;;;;4999652;28;20952;-62
2023/05/18 12:02:39;;;;;;;2.10;1.27;;;;;;;;;;4998354;28;20948;-59
2023/05/18 12:05:09;;;;;;;3.53;0.75;;;;;;;;;;4995235;28;20205;-59
2023/05/18 12:07:37;;;;;;;1.73;0.70;;;;;;;;;;5005948;28;20217;-59
2023/05/18 12:10:05;;;;;;;0.90;0.60;;;;;;;;;;5000514;28;20209;-58
2023/05/18 12:12:33;;;;;;;2.55;0.93;;;;;;;;;;4991179;28;20216;-58
2023/05/18 12:15:01;;;;;;;2.20;0.75;;;;;;;;;;5006969;28;20217;-59
2023/05/18 12:17:39;;;;;;;1.10;1.02;;;;;;;;;;5004298;28;20213;-58
2023/05/18 12:20:06;;;;;;;2.00;0.98;;;;;;;;;;4987605;28;20287;-58
2023/05/18 12:22:36;;;;;;;0.75;0.70;;;;;;;;;;5006252;28;20702;-58
2023/05/18 12:25:03;;;;;;;2.58;1.00;;;;;;;;;;4997676;28;20229;-58
2023/05/18 12:27:31;;;;;;;0.73;0.73;;;;;;;;;;4996946;28;20559;-58
2023/05/18 12:29:58;;;;;;;1.15;0.90;;;;;;;;;;4993903;28;20279;-58
2023/05/18 12:32:25;;;;;;;1.00;1.00;;;;;;;;;;4987330;28;20226;-57
2023/05/18 12:34:52;;;;;;;2.33;0.68;;;;;;;;;;4987408;28;20210;-58
2023/05/18 12:37:20;;;;;;;2.40;0.63;;;;;;;;;;4994048;28;20272;-58
2023/05/18 12:39:53;;;;;;;0.60;0.60;;;;;;;;;;5022199;28;20240;-59
2023/05/18 12:42:21;;;;;;;1.63;0.98;;;;;;;;;;5007902;28;20762;-59
2023/05/18 12:44:49;;;;;;;1.00;0.82;;;;;;;;;;5006549;28;20209;-59
2023/05/18 12:47:16;;;;;;;0.88;0.70;;;;;;;;;;5002498;28;20205;-58
2023/05/18 12:49:48;;;;;;;0.40;0.40;;;;;;;;;;5002041;28;20259;-59
2023/05/18 12:52:16;;;;;;;2.63;0.68;;;;;;;;;;5027284;28;20208;-59
2023/05/18 12:54:57;;;;;;;4.85;0.93;;;;;;;;;;5015687;28;20251;-59
2023/05/18 12:57:25;;;;;;;2.25;0.93;;;;;;;;;;5012487;28;20213;-59
2023/05/18 12:59:53;;;;;;;0.57;0.57;;;;;;;;;;5007548;28;20212;-59
2023/05/18 13:02:31;;;;;;;1.85;0.80;;;;;;;;;;4998617;28;20279;-58
2023/05/18 13:05:06;;;;;;;0.77;0.60;;;;;;;;;;4988688;28;20217;-59
2023/05/18 13:07:33;;;;;;;1.30;0.57;;;;;;;;;;4998817;28;20205;-59
2023/05/18 13:10:06;;;;;;;1.10;0.80;;;;;;;;;;4987486;28;20267;-59
2023/05/18 13:12:40;;;;;;;0.63;0.63;;;;;;;;;;5003009;28;20580;-58
2023/05/18 13:15:11;;;;;;;1.13;1.08;;;;;;;;;;5006344;28;20220;-58
2023/05/18 13:17:38;;;;;;;1.38;0.90;;;;;;;;;;4997659;28;20216;-59
2023/05/18 13:20:13;;;;;;;0.80;0.80;;;;;;;;;;5007283;28;20298;-58
2023/05/18 13:22:40;;;;;;;1.30;0.75;;;;;;;;;;5006376;28;20327;-59
2023/05/18 13:25:09;;;;;;;0.93;0.77;;;;;;;;;;5007382;28;20240;-59
2023/05/18 13:27:36;;;;;;;1.27;0.50;;;;;;;;;;4998205;28;20578;-59
2023/05/18 13:30:03;;;;;;;0.98;0.70;;;;;;;;;;4999457;28;20278;-59
2023/05/18 13:32:30;;;;;;;0.82;0.82;;;;;;;;;;5002982;28;20212;-59
2023/05/18 13:34:57;;;;;;;1.50;0.88;;;;;;;;;;5003684;28;20416;-59
2023/05/18 13:37:24;;;;;;;0.80;0.70;;;;;;;;;;4987807;28;20590;-57
2023/05/18 13:39:51;;;;;;;2.50;0.95;;;;;;;;;;5002323;28;20220;-57
2023/05/18 13:42:20;;;;;;;4.22;1.13;;;;;;;;;;5007662;28;20367;-60
2023/05/18 13:44:47;;;;;;;0.75;0.75;;;;;;;;;;4995413;28;20747;-60
2023/05/18 13:47:14;;;;;;;5.35;0.70;;;;;;;;;;5005289;28;20281;-60
2023/05/18 13:49:41;;;;;;;1.10;0.88;;;;;;;;;;5001273;28;20260;-60
2023/05/18 13:52:08;;;;;;;0.70;0.70;;;;;;;;;;5010396;28;20205;-60
2023/05/18 13:54:36;;;;;;;3.95;0.95;;;;;;;;;;5003130;28;20201;-57
2023/05/18 13:57:03;;;;;;;1.95;1.13;;;;;;;;;;4996528;28;20289;-57
2023/05/18 13:59:33;;;;;;;2.40;1.00;;;;;;;;;;5008247;28;20627;-58
2023/05/18 14:02:00;;;;;;;2.15;0.68;;;;;;;;;;5009155;28;20660;-57
2023/05/18 14:04:27;;;;;;;0.80;0.80;;;;;;;;;;5008060;28;20751;-58
2023/05/18 14:06:54;;;;;;;2.30;0.88;;;;;;;;;;5009380;28;20267;-57
2023/05/18 14:09:21;;;;;;;1.17;0.40;;;;;;;;;;5005820;28;20215;-57
2023/05/18 14:11:48;;;;;;;5.70;0.90;;;;;;;;;;5007010;28;20205;-57
2023/05/18 14:14:15;;;;;;;2.10;0.75;;;;;;;;;;4990352;28;20587;-57
2023/05/18 14:16:44;;;;;;;2.63;0.85;;;;;;;;;;4990676;28;20450;-57
2023/05/18 14:19:11;;;;;;;3.35;0.85;;;;;;;;;;5001539;28;20198;-58
2023/05/18 14:21:38;;;;;;;1.85;0.80;;;;;;;;;;5008813;28;20299;-58
2023/05/18 14:24:07;;;;;;;1.58;0.77;;;;;;;;;;5009397;28;20343;-58
2023/05/18 14:26:35;;;;;;;1.30;1.20;;;;;;;;;;4993587;28;20210;-58
2023/05/18 14:29:02;;;;;;;1.90;0.93;;;;;;;;;;4995876;28;20930;-57
2023/05/18 14:31:29;;;;;;;0.70;0.70;;;;;;;;;;5004513;28;20758;-57
2023/05/18 14:33:58;;;;;;;2.97;0.77;;;;;;;;;;4992398;28;20284;-57
2023/05/18 14:36:25;;;;;;;2.85;0.82;;;;;;;;;;5000964;28;20205;-56
2023/05/18 14:38:52;;;;;;;0.98;0.80;;;;;;;;;;5004384;28;20217;-57
2023/05/18 14:41:20;;;;;;;3.83;0.60;;;;;;;;;;5001302;28;20220;-57
2023/05/18 14:43:49;;;;;;;0.60;0.60;;;;;;;;;;4995759;28;20205;-58
2023/05/18 14:46:16;;;;;;;0.60;0.60;;;;;;;;;;5008002;28;20205;-57
2023/05/18 14:48:43;;;;;;;1.30;1.02;;;;;;;;;;5007483;28;20278;-56
2023/05/18 14:51:12;;;;;;;1.20;0.73;;;;;;;;;;5005996;28;20233;-57